createdAt,value
2023-06-11T00:02:36.579Z,101125.50
2023-06-11T00:06:44.418Z,101127.27
2023-06-11T00:10:51.277Z,101126.14
2023-06-11T00:14:58.120Z,101123.31
2023-06-11T00:19:05.790Z,101126.23
2023-06-11T00:23:12.766Z,101129.98
2023-06-11T00:27:19.663Z,101130.20
2023-06-11T00:31:26.720Z,101130.18
2023-06-11T00:35:33.608Z,101126.63
2023-06-11T00:39:40.586Z,101127.61
2023-06-11T00:43:47.476Z,101131.57
2023-06-11T00:47:54.588Z,101133.16
2023-06-11T00:52:01.777Z,101142.79
2023-06-11T00:56:08.912Z,101142.06
2023-06-11T01:00:16.785Z,101141.48
2023-06-11T01:04:24.790Z,101144.30
2023-06-11T01:08:34.345Z,101146.14
2023-06-11T01:12:41.713Z,101145.27
2023-06-11T01:16:54.241Z,101147.00
2023-06-11T01:21:05.671Z,101150.89
2023-06-11T01:25:32.760Z,101152.30
2023-06-11T01:29:46.628Z,101153.41
2023-06-11T01:33:54.302Z,101162.13
2023-06-11T01:38:01.275Z,101160.50
2023-06-11T01:42:09.336Z,101165.94
2023-06-11T01:46:16.396Z,101174.02
2023-06-11T01:50:23.739Z,101172.29
2023-06-11T01:54:31.145Z,101174.22
2023-06-11T01:58:38.481Z,101179.38
2023-06-11T02:02:48.733Z,101180.27
2023-06-11T02:06:56.063Z,101187.96
2023-06-11T02:11:03.752Z,101187.02
2023-06-11T02:15:11.880Z,101192.49
2023-06-11T02:19:18.963Z,101190.46
2023-06-11T02:23:25.842Z,101193.47
2023-06-11T02:27:32.706Z,101194.96
2023-06-11T02:31:39.749Z,101196.17
2023-06-11T02:35:46.774Z,101197.77
2023-06-11T02:40:09.740Z,101202.59
2023-06-11T02:44:16.706Z,101204.20
2023-06-11T02:48:23.569Z,101212.08
2023-06-11T02:52:51.180Z,101211.75
2023-06-11T02:57:13.473Z,101219.80
2023-06-11T03:01:44.549Z,101220.52
2023-06-11T03:06:03.170Z,101224.18
2023-06-11T03:10:13.527Z,101227.58
2023-06-11T03:14:38.052Z,101230.73
2023-06-11T03:18:45.751Z,101235.46
2023-06-11T03:22:52.745Z,101235.92
2023-06-11T03:27:10.036Z,101237.52
2023-06-11T03:31:49.526Z,101240.68
2023-06-11T03:36:19.695Z,101242.67
2023-06-11T03:40:55.870Z,101245.25
2023-06-11T03:45:11.912Z,101247.79
2023-06-11T03:49:37.688Z,101253.02
2023-06-11T03:54:02.168Z,101255.61
2023-06-11T03:58:09.120Z,101261.49
2023-06-11T04:02:16.111Z,101271.64
2023-06-11T04:06:37.733Z,101275.71
2023-06-11T04:11:21.734Z,101282.45
2023-06-11T04:15:28.685Z,101280.63
2023-06-11T04:19:35.590Z,101286.70
2023-06-11T04:23:46.382Z,101290.08
2023-06-11T04:27:53.941Z,101293.27
2023-06-11T04:32:03.242Z,101292.16
2023-06-11T04:36:15.269Z,101293.57
2023-06-11T04:40:57.484Z,101288.70
2023-06-11T04:45:14.266Z,101288.30
2023-06-11T04:53:46.666Z,101296.96
2023-06-11T04:57:55.508Z,101295.43
2023-06-11T05:02:04.482Z,101299.74
2023-06-11T05:06:14.803Z,101302.94
2023-06-11T05:10:33.954Z,101302.46
2023-06-11T05:14:41.001Z,101303.10
2023-06-11T05:19:19.206Z,101308.10
2023-06-11T05:23:34.869Z,101306.17
2023-06-11T05:27:55.693Z,101309.34
2023-06-11T05:32:11.818Z,101307.55
2023-06-11T05:36:51.588Z,101313.48
2023-06-11T05:41:23.982Z,101317.35
2023-06-11T05:45:48.039Z,101314.50
2023-06-11T05:54:36.700Z,101318.64
2023-06-11T05:58:43.555Z,101323.20
2023-06-11T06:02:50.495Z,101319.79
2023-06-11T06:07:05.272Z,101317.71
2023-06-11T06:20:47.600Z,101325.60
2023-06-11T06:25:18.887Z,101330.48
2023-06-11T06:29:57.189Z,101335.44
2023-06-11T06:34:04.125Z,101326.85
2023-06-11T06:38:11.009Z,101323.83
2023-06-11T06:42:22.416Z,101328.47
2023-06-11T06:46:29.307Z,101324.04
2023-06-11T06:50:49.204Z,101326.00
2023-06-11T06:54:56.333Z,101332.52
2023-06-11T06:59:15.558Z,101325.73
2023-06-11T07:03:22.546Z,101323.45
2023-06-11T07:07:29.570Z,101319.65
2023-06-11T07:11:36.738Z,101323.20
2023-06-11T07:15:43.679Z,101320.06
2023-06-11T07:19:51.452Z,101327.20
2023-06-11T07:24:00.255Z,101327.67
2023-06-11T07:28:08.081Z,101330.25
2023-06-11T07:32:15.012Z,101323.23
2023-06-11T07:36:42.601Z,101325.15
2023-06-11T07:40:58.496Z,101327.02
2023-06-11T07:49:31.101Z,101322.56
2023-06-11T07:53:38.426Z,101327.29
2023-06-11T07:57:52.645Z,101328.42
2023-06-11T08:02:04.504Z,101328.28
2023-06-11T08:06:25.536Z,101318.41
2023-06-11T08:14:53.563Z,101322.37
2023-06-11T08:19:00.478Z,101324.74
2023-06-11T08:23:18.572Z,101318.63
2023-06-11T08:27:25.287Z,101316.21
2023-06-11T08:31:45.009Z,101307.48
2023-06-11T08:35:51.836Z,101304.20
2023-06-11T08:40:13.206Z,101305.46
2023-06-11T08:48:48.223Z,101299.90
2023-06-11T08:52:55.106Z,101301.61
2023-06-11T08:57:09.828Z,101293.41
2023-06-11T09:01:16.722Z,101294.08
2023-06-11T09:05:23.780Z,101289.87
2023-06-11T09:09:30.686Z,101283.13
2023-06-11T09:13:37.418Z,101279.25
2023-06-11T09:17:48.665Z,101284.18
2023-06-11T09:21:57.338Z,101277.65
2023-06-11T09:26:22.230Z,101277.98
2023-06-11T09:30:29.501Z,101277.59
2023-06-11T09:34:46.260Z,101266.70
2023-06-11T09:39:11.535Z,101263.89
2023-06-11T09:43:20.153Z,101260.08
2023-06-11T09:47:27.944Z,101264.98
2023-06-11T09:51:40.393Z,101261.73
2023-06-11T10:00:09.146Z,101251.98
2023-06-11T10:04:16.057Z,101254.19
2023-06-11T10:08:36.693Z,101256.91
2023-06-11T10:12:57.331Z,101253.57
2023-06-11T10:17:11.371Z,101255.08
2023-06-11T10:21:51.066Z,101253.42
2023-06-11T10:26:16.741Z,101236.97
2023-06-11T10:30:38.356Z,101240.35
2023-06-11T10:35:02.863Z,101242.73
2023-06-11T10:39:11.000Z,101242.85
2023-06-11T10:43:19.886Z,101229.77
2023-06-11T10:47:44.774Z,101226.27
2023-06-11T10:52:09.300Z,101225.64
2023-06-11T10:56:31.641Z,101224.02
2023-06-11T11:00:57.256Z,101220.50
2023-06-11T11:05:04.417Z,101225.27
2023-06-11T11:09:11.351Z,101227.87
2023-06-11T11:13:36.844Z,101229.63
2023-06-11T11:17:58.057Z,101223.36
2023-06-11T11:22:05.286Z,101227.73
2023-06-11T11:26:19.428Z,101218.87
2023-06-11T11:30:40.804Z,101214.27
2023-06-11T11:34:47.998Z,101220.15
2023-06-11T11:38:55.523Z,101223.22
2023-06-11T11:43:23.168Z,101223.55
2023-06-11T11:47:53.721Z,101223.42
2023-06-11T11:52:07.826Z,101223.79
2023-06-11T11:56:14.926Z,101219.51
2023-06-11T12:00:29.087Z,101212.25
2023-06-11T12:04:41.368Z,101216.74
2023-06-11T12:09:12.659Z,101220.51
2023-06-11T12:13:29.133Z,101213.70
2023-06-11T12:17:36.977Z,101207.05
2023-06-11T12:21:43.928Z,101205.44
2023-06-11T12:25:54.503Z,101208.89
2023-06-11T12:30:02.061Z,101208.34
2023-06-11T12:34:11.342Z,101205.12
2023-06-11T12:38:19.758Z,101204.48
2023-06-11T12:42:28.684Z,101200.86
2023-06-11T13:00:39.334Z,101195.69
2023-06-11T13:05:09.825Z,101194.02
2023-06-11T13:09:32.407Z,101186.99
2023-06-11T13:14:19.085Z,101189.97
2023-06-11T13:18:29.534Z,101198.98
2023-06-11T13:27:33.532Z,101188.99
2023-06-11T13:32:20.206Z,101186.55
2023-06-11T13:36:32.790Z,101183.15
2023-06-11T13:44:56.537Z,101194.05
2023-06-11T13:49:03.647Z,101198.64
2023-06-11T13:53:22.476Z,101201.67
2023-06-11T14:06:47.560Z,101192.62
2023-06-11T14:10:55.784Z,101191.66
2023-06-11T14:19:15.923Z,101177.64
2023-06-11T14:23:22.860Z,101174.14
2023-06-11T14:27:36.769Z,101171.25
2023-06-11T14:32:00.779Z,101180.94
2023-06-11T14:36:08.610Z,101186.48
2023-06-11T14:40:15.895Z,101187.77
2023-06-11T14:44:26.561Z,101190.35
2023-06-11T14:48:33.506Z,101186.66
2023-06-11T14:52:40.418Z,101179.06
2023-06-11T14:57:14.273Z,101181.91
2023-06-11T15:01:24.298Z,101178.58
2023-06-11T15:10:20.596Z,101179.89
2023-06-11T15:14:27.680Z,101177.48
2023-06-11T15:18:34.728Z,101173.84
2023-06-11T15:22:47.127Z,101168.02
2023-06-11T15:26:54.245Z,101168.66
2023-06-11T15:31:13.940Z,101166.80
2023-06-11T15:35:21.008Z,101167.42
2023-06-11T15:39:28.280Z,101159.77
2023-06-11T15:43:46.524Z,101158.71
2023-06-11T15:52:21.056Z,101163.09
2023-06-11T15:56:27.958Z,101170.58
2023-06-11T16:00:42.948Z,101172.68
2023-06-11T16:13:43.829Z,101182.74
2023-06-11T16:17:50.929Z,101179.52
2023-06-11T16:22:03.693Z,101174.28
2023-06-11T16:30:36.157Z,101169.21
2023-06-11T16:34:43.164Z,101171.09
2023-06-11T16:39:21.812Z,101168.39
2023-06-11T16:48:23.595Z,101168.41
2023-06-11T16:56:46.158Z,101176.36
2023-06-11T17:00:56.170Z,101177.62
2023-06-11T17:05:15.737Z,101179.96
2023-06-11T17:09:22.667Z,101182.08
2023-06-11T17:13:29.589Z,101187.39
2023-06-11T17:17:59.419Z,101184.09
2023-06-11T17:22:09.598Z,101184.64
2023-06-11T17:26:17.617Z,101186.11
2023-06-11T17:30:40.170Z,101186.63
2023-06-11T17:34:48.363Z,101185.45
2023-06-11T17:39:04.593Z,101184.73
2023-06-11T17:43:11.562Z,101189.20
2023-06-11T17:47:18.904Z,101191.42
2023-06-11T17:51:30.808Z,101195.25
2023-06-11T17:55:40.883Z,101194.01
2023-06-11T17:59:56.468Z,101194.96
2023-06-11T18:04:09.698Z,101197.76
2023-06-11T18:08:19.646Z,101203.13
2023-06-11T18:12:26.720Z,101203.63
2023-06-11T18:16:34.717Z,101206.14
2023-06-11T18:21:01.999Z,101209.77
2023-06-11T18:25:14.659Z,101207.90
2023-06-11T22:41:14.162Z,101299.16
2023-06-11T22:45:21.201Z,101299.86
2023-06-11T22:49:29.270Z,101295.52
2023-06-11T22:53:36.576Z,101297.12
2023-06-11T22:57:43.398Z,101294.53
2023-06-11T23:01:50.975Z,101295.73
2023-06-11T23:05:57.876Z,101294.25
2023-06-11T23:10:04.912Z,101295.65
2023-06-11T23:14:13.686Z,101289.93
2023-06-11T23:18:20.600Z,101287.50
2023-06-11T23:22:27.501Z,101286.77
2023-06-11T23:26:34.418Z,101282.67
2023-06-11T23:30:41.984Z,101281.47
2023-06-11T23:34:50.192Z,101279.02
2023-06-11T23:38:57.444Z,101275.20
2023-06-11T23:43:04.289Z,101276.66
2023-06-11T23:47:11.358Z,101281.75
2023-06-11T23:51:21.138Z,101275.93
2023-06-11T23:55:28.021Z,101276.25
2023-06-11T23:59:34.974Z,101278.46
